WI45 weather

Langlade Memorial Hospital Heliport
Antigo, Wisconsin, United States

Public forecast

Using degrees Fahrenheit for public forecast. Weather courtesy of forecast.io.

Closest aviation weather report (METAR) to Langlade Memorial Hospital Heliport

Closest report is Langlade County Airport, 1.4 nm (2.7 km) ENE. Retrieved 2020/02/18 15:35 UTC (0 seconds ago):

KAIG 181535Z AUTO 32014G21KT 10SM OVC020 M07/M10 A3001 RMK AO2 T10711105

Closest aviation forecast (TAF) to Langlade Memorial Hospital Heliport

Closest forecast is Wausau Downtown Airport, 24.4 nm (45.2 km) WSW. Retrieved 2020/02/18 12:27 UTC (3 hours ago):

TAF KAUW 181125Z 1812/1912 32013G20KT P6SM -SHSN BKN015 BKN025 TEMPO 1813/1815 SCT025 FM181500 30014G23KT P6SM BKN020 BKN035 FM182000 29014G23KT P6SM BKN035 FM190000 30010G16KT P6SM SCT030 FM190200 30007KT P6SM SKC